Terminal Aerodrome Forecast
Issued by NWS Quad Cities IA IL

Home | Current Version | Previous Version | Text Only | Print | Product List | Glossary On
Versions: 1 2 3 4 5 6 7 8 9 10 11 12 13 14 15 16 17 18 19 20 21 22
000
FTUS43 KDVN 250907 AAA
TAFMLI
TAF AMD
KMLI 250907Z 2509/2606 34007KT P6SM BKN040
     FM251300 33004KT P6SM BKN020
     FM251600 32006KT P6SM SCT030=

USA.gov is the U.S. government's official web portal to all federal, state and local government web resources and services.